createdAt,value
2023-04-01T00:01:19.186Z,30.60
2023-04-01T00:03:47.657Z,38.30
2023-04-01T00:06:18.613Z,36.30
2023-04-01T00:08:47.839Z,35.40
2023-04-01T00:11:17.003Z,35.80
2023-04-01T00:13:45.606Z,34.50
2023-04-01T00:16:21.822Z,31.10
2023-04-01T00:18:52.353Z,31.30
2023-04-01T00:21:22.251Z,32.90
2023-04-01T00:23:53.701Z,31.30
2023-04-01T00:26:23.191Z,29.90
2023-04-01T00:28:52.214Z,29.70
2023-04-01T00:31:21.810Z,30.70
2023-04-01T00:33:50.878Z,30.30
2023-04-01T00:36:22.960Z,31.10
2023-04-01T00:38:52.915Z,33.00
2023-04-01T00:41:22.639Z,33.80
2023-04-01T00:43:53.684Z,32.70
2023-04-01T00:46:22.047Z,36.70
2023-04-01T00:48:54.500Z,39.00
2023-04-01T00:51:30.367Z,33.70
2023-04-01T00:54:02.944Z,31.60
2023-04-01T00:56:49.963Z,29.60
2023-04-01T00:59:26.260Z,27.80
2023-04-01T01:01:55.033Z,28.10
2023-04-01T01:04:29.399Z,28.50
2023-04-01T01:07:21.091Z,28.10
2023-04-01T01:10:11.020Z,28.60
2023-04-01T01:13:12.371Z,28.90
2023-04-01T01:15:58.591Z,28.00
2023-04-01T01:18:38.957Z,25.20
2023-04-01T01:21:22.582Z,26.90
2023-04-01T01:24:08.896Z,27.10
2023-04-01T01:27:03.240Z,26.90
2023-04-01T01:29:56.512Z,26.60
2023-04-01T01:32:56.868Z,23.60
2023-04-01T01:35:51.202Z,24.10
2023-04-01T01:38:25.318Z,26.80
2023-04-01T01:41:03.441Z,25.00
2023-04-01T01:43:36.553Z,23.50
2023-04-01T01:46:12.789Z,22.50
2023-04-01T01:48:44.030Z,24.80
2023-04-01T01:51:13.119Z,25.80
2023-04-01T01:53:42.096Z,28.60
2023-04-01T01:56:15.084Z,27.00
2023-04-01T01:58:48.830Z,24.70
2023-04-01T02:01:25.859Z,25.40
2023-04-01T02:03:56.967Z,24.00
2023-04-01T02:06:29.531Z,25.20
2023-04-01T02:09:04.306Z,25.60
2023-04-01T02:11:45.279Z,26.00
2023-04-01T02:14:27.604Z,25.40
2023-04-01T02:17:07.834Z,23.80
2023-04-01T02:19:46.250Z,22.60
2023-04-01T02:22:20.505Z,26.30
2023-04-01T02:24:51.975Z,26.80
2023-04-01T02:27:21.781Z,28.70
2023-04-01T02:29:51.716Z,24.80
2023-04-01T02:32:21.768Z,24.40
2023-04-01T02:34:51.732Z,25.30
2023-04-01T02:37:20.724Z,24.10
2023-04-01T02:39:50.324Z,23.80
2023-04-01T02:42:20.210Z,25.50
2023-04-01T02:44:49.173Z,26.40
2023-04-01T02:47:18.273Z,25.10
2023-04-01T02:49:46.699Z,24.30
2023-04-01T02:52:15.166Z,23.30
2023-04-01T02:54:43.762Z,23.00
2023-04-01T02:57:12.150Z,24.70
2023-04-01T02:59:40.664Z,24.90
2023-04-01T07:36:08.361Z,17.00
2023-04-01T07:38:48.521Z,17.30
2023-04-01T07:41:36.214Z,17.30
2023-04-01T07:44:31.167Z,19.00
2023-04-01T07:47:30.882Z,17.00
2023-04-01T07:50:27.172Z,16.50
2023-04-01T07:52:54.383Z,16.50
2023-04-01T07:55:24.491Z,16.10
2023-04-01T07:58:08.736Z,15.10
2023-04-01T08:01:03.707Z,13.70
2023-04-01T08:03:59.466Z,14.00
2023-04-01T08:06:54.461Z,19.70
2023-04-01T08:09:39.638Z,18.10
2023-04-01T08:12:45.916Z,21.10
2023-04-01T08:15:57.585Z,21.00
2023-04-01T08:18:50.347Z,22.00
2023-04-01T08:21:36.142Z,20.90
2023-04-01T08:24:19.268Z,23.50
2023-04-01T08:26:54.140Z,26.30
2023-04-01T08:29:26.526Z,28.50
2023-04-01T08:32:13.917Z,29.70
2023-04-01T08:34:46.269Z,22.60
2023-04-01T08:37:33.656Z,20.10
2023-04-01T08:40:28.313Z,21.20
2023-04-01T08:43:25.757Z,23.60
2023-04-01T08:49:56.549Z,22.80
2023-04-01T08:52:51.548Z,21.90
2023-04-01T08:55:39.609Z,26.50
2023-04-01T08:58:40.618Z,29.30
2023-04-01T09:01:21.595Z,31.00
2023-04-01T09:04:26.243Z,38.60
2023-04-01T09:07:28.651Z,41.70
2023-04-01T09:10:14.462Z,46.30
2023-04-01T09:13:21.424Z,48.40
2023-04-01T09:16:23.749Z,45.90
2023-04-01T09:19:12.558Z,49.50
2023-04-01T09:22:14.815Z,70.00
2023-04-01T09:28:52.971Z,109.50
2023-04-01T09:32:02.897Z,101.30
2023-04-01T09:35:22.920Z,97.20
2023-04-01T09:38:09.919Z,96.50
2023-04-01T09:40:55.209Z,98.40
2023-04-01T09:44:02.782Z,106.20
2023-04-01T09:46:59.241Z,106.20
2023-04-01T09:49:31.149Z,110.10
2023-04-01T09:52:10.846Z,93.60
2023-04-01T09:55:00.712Z,102.60
2023-04-01T09:57:46.193Z,113.90
2023-04-01T10:00:51.533Z,111.80
2023-04-01T10:03:56.160Z,113.70
2023-04-01T10:06:59.056Z,114.50
2023-04-01T10:10:05.684Z,121.20
2023-04-01T10:12:39.957Z,117.50
2023-04-01T10:15:20.812Z,99.80
2023-04-01T10:18:26.920Z,107.40
2023-04-01T10:21:24.634Z,118.70
2023-04-01T10:23:53.062Z,112.50
2023-04-01T10:26:45.330Z,115.60
2023-04-01T10:30:07.091Z,106.70
2023-04-01T10:33:08.377Z,101.00
2023-04-01T10:35:52.138Z,106.60
2023-04-01T10:38:29.403Z,106.30
2023-04-01T10:41:19.730Z,116.30
2023-04-01T10:44:29.107Z,119.40
2023-04-01T10:47:14.062Z,114.30
2023-04-01T10:50:11.156Z,107.20
2023-04-01T10:53:16.079Z,113.20
2023-04-01T10:56:31.328Z,102.60
2023-04-01T10:59:34.134Z,98.40
2023-04-01T11:02:40.111Z,105.50
2023-04-01T11:08:39.984Z,109.20
2023-04-01T11:11:26.800Z,90.40
2023-04-01T11:14:13.401Z,108.90
2023-04-01T11:17:01.048Z,93.40
2023-04-01T11:19:51.246Z,95.90
2023-04-01T11:22:25.960Z,87.10
2023-04-01T11:25:10.583Z,94.90
2023-04-01T11:28:03.872Z,89.40
2023-04-01T11:31:01.905Z,92.10
2023-04-01T11:33:40.027Z,94.40
2023-04-01T11:36:20.594Z,86.40
2023-04-01T11:39:11.696Z,94.30
2023-04-01T11:42:45.287Z,94.20
2023-04-01T11:45:47.678Z,92.60
2023-04-01T11:48:38.005Z,94.80
2023-04-01T11:51:35.692Z,99.40
2023-04-01T11:54:44.266Z,96.00
2023-04-01T11:57:30.721Z,90.40
2023-04-01T12:00:19.767Z,94.00
2023-04-01T12:03:25.861Z,89.40
2023-04-01T12:06:04.761Z,91.20
2023-04-01T12:08:34.215Z,90.50
2023-04-01T12:11:40.672Z,87.60
2023-04-01T12:14:37.843Z,87.40
2023-04-01T12:17:40.428Z,92.40
2023-04-01T12:20:27.074Z,90.40
2023-04-01T12:23:33.647Z,91.80
2023-04-01T12:26:28.462Z,85.90
2023-04-01T12:29:06.049Z,92.50
2023-04-01T12:31:57.243Z,93.90
2023-04-01T12:34:34.767Z,87.30
2023-04-01T12:37:21.972Z,86.50
2023-04-01T12:39:59.797Z,88.80
2023-04-01T12:42:45.881Z,95.00
2023-04-01T12:45:23.456Z,93.00
2023-04-01T12:48:37.001Z,95.40
2023-04-01T12:51:11.378Z,96.50
2023-04-01T12:54:16.865Z,96.70
2023-04-01T12:57:03.259Z,98.80
2023-04-01T13:02:31.303Z,94.70
2023-04-01T13:05:17.878Z,100.20
2023-04-01T13:08:07.236Z,91.50
2023-04-01T13:10:59.477Z,94.70
2023-04-01T13:13:46.545Z,99.10
2023-04-01T13:16:40.068Z,92.70
2023-04-01T13:20:01.809Z,95.90
2023-04-01T13:22:54.234Z,85.80
2023-04-01T13:25:29.204Z,82.40
2023-04-01T13:28:28.824Z,84.60
2023-04-01T13:31:07.670Z,81.40
2023-04-01T13:33:38.872Z,85.60
2023-04-01T13:36:25.191Z,80.70
2023-04-01T13:39:21.777Z,74.50
2023-04-01T13:46:08.411Z,88.10
2023-04-01T13:49:00.161Z,91.10
2023-04-01T13:52:00.164Z,83.40
2023-04-01T13:54:43.820Z,84.50
2023-04-01T13:57:49.493Z,87.60
2023-04-01T14:00:48.383Z,82.30
2023-04-01T14:03:31.535Z,89.40
2023-04-01T14:06:44.884Z,80.10
2023-04-01T14:09:22.100Z,86.40
2023-04-01T14:11:56.543Z,78.80
2023-04-01T14:14:31.072Z,82.30
2023-04-01T14:17:28.642Z,80.70
2023-04-01T14:20:26.994Z,78.70
2023-04-01T14:23:29.272Z,78.80
2023-04-01T14:26:12.723Z,76.60
2023-04-01T14:29:08.752Z,80.00
2023-04-01T14:31:53.210Z,75.30
2023-04-01T14:34:59.453Z,74.70
2023-04-01T14:38:00.370Z,71.20
2023-04-01T14:40:54.325Z,76.60
2023-04-01T14:43:45.709Z,66.70
2023-04-01T14:46:34.442Z,73.50
2023-04-01T14:49:40.635Z,68.20
2023-04-01T14:52:37.117Z,74.40
2023-04-01T14:55:35.937Z,78.20
2023-04-01T14:58:18.513Z,74.40
2023-04-01T15:01:05.958Z,69.20
2023-04-01T15:03:49.124Z,77.40
2023-04-01T15:06:45.108Z,75.20
2023-04-01T15:09:40.063Z,76.40
2023-04-01T15:12:30.490Z,77.30
2023-04-01T15:15:31.172Z,75.30
2023-04-01T15:18:20.267Z,77.60
2023-04-01T15:21:20.108Z,76.80
2023-04-01T15:24:12.845Z,81.30
2023-04-01T15:27:03.120Z,79.50
2023-04-01T15:30:13.168Z,77.20
2023-04-01T15:33:09.201Z,81.30
2023-04-01T15:38:49.363Z,80.30
2023-04-01T15:41:37.207Z,80.70
2023-04-01T15:44:25.562Z,89.60
2023-04-01T15:46:53.952Z,83.20
2023-04-01T15:50:01.370Z,82.50
2023-04-01T15:52:51.451Z,82.50
2023-04-01T15:55:22.369Z,85.30
2023-04-01T15:58:03.201Z,89.20
2023-04-01T16:00:43.312Z,85.50
2023-04-01T16:03:49.707Z,88.80
2023-04-01T16:06:28.695Z,89.70
2023-04-01T16:09:22.289Z,86.30
2023-04-01T16:12:19.300Z,93.50
2023-04-01T16:15:01.446Z,85.10
2023-04-01T16:17:43.188Z,79.10
2023-04-01T16:20:45.766Z,76.90
2023-04-01T16:23:27.924Z,80.00
2023-04-01T16:26:19.930Z,75.90
2023-04-01T16:28:56.414Z,82.00
2023-04-01T16:31:27.783Z,73.40
2023-04-01T16:34:05.756Z,85.60
2023-04-01T16:36:51.583Z,77.10
2023-04-01T16:39:47.675Z,78.20
2023-04-01T16:42:44.132Z,77.70
2023-04-01T16:45:45.498Z,78.30
2023-04-01T16:48:54.072Z,69.20
2023-04-01T16:51:46.240Z,73.50
2023-04-01T16:54:36.402Z,74.10
2023-04-01T16:57:05.222Z,80.20
2023-04-01T16:59:56.469Z,80.20
2023-04-01T17:02:31.633Z,72.80
2023-04-01T17:05:09.656Z,76.30
2023-04-01T17:08:12.371Z,72.00
2023-04-01T17:10:54.666Z,72.50
2023-04-01T17:13:51.694Z,74.80
2023-04-01T17:16:20.964Z,71.10
2023-04-01T17:19:01.898Z,73.20
2023-04-01T17:22:03.046Z,71.00
2023-04-01T17:25:19.312Z,69.10
2023-04-01T17:28:00.343Z,70.20
2023-04-01T17:30:47.285Z,70.30
2023-04-01T17:34:03.739Z,67.10
2023-04-01T17:36:41.400Z,70.10
2023-04-01T17:39:29.993Z,68.20
2023-04-01T17:42:06.702Z,68.60
2023-04-01T17:44:56.166Z,69.30
2023-04-01T17:47:30.983Z,74.70
2023-04-01T17:50:11.784Z,69.60
2023-04-01T17:53:00.917Z,73.90
2023-04-01T17:56:02.025Z,76.10
2023-04-01T17:58:48.111Z,75.30
2023-04-01T18:01:38.362Z,76.90
2023-04-01T18:04:48.666Z,74.00
2023-04-01T18:07:26.357Z,75.30
2023-04-01T18:10:05.974Z,76.60
2023-04-01T18:12:47.105Z,76.00
2023-04-01T18:15:34.484Z,74.90
2023-04-01T18:18:20.393Z,73.40
2023-04-01T18:21:08.383Z,71.30
2023-04-01T18:24:04.015Z,74.10
2023-04-01T18:26:39.867Z,75.70
2023-04-01T18:29:19.247Z,75.70
2023-04-01T18:31:56.542Z,69.40
2023-04-01T18:34:53.658Z,78.30
2023-04-01T18:37:32.915Z,70.20
2023-04-01T18:40:37.734Z,69.90
2023-04-01T18:43:41.297Z,68.10
2023-04-01T18:46:40.717Z,69.90
2023-04-01T18:49:30.779Z,69.70
2023-04-01T18:52:09.800Z,74.20
2023-04-01T18:54:54.475Z,76.00
2023-04-01T18:57:24.697Z,67.60
2023-04-01T19:00:09.792Z,75.00
2023-04-01T19:02:38.219Z,73.80
2023-04-01T19:05:19.582Z,77.20
2023-04-01T19:07:54.620Z,72.40
2023-04-01T19:10:32.500Z,68.80
2023-04-01T19:13:19.809Z,62.80
2023-04-01T19:15:52.357Z,60.10
2023-04-01T19:18:51.851Z,67.60
2023-04-01T19:21:28.199Z,73.40
2023-04-01T19:24:24.053Z,71.80
2023-04-01T19:27:04.207Z,68.00
2023-04-01T19:29:44.680Z,68.60
2023-04-01T19:32:42.442Z,60.70
2023-04-01T19:35:24.590Z,63.70
2023-04-01T19:38:03.118Z,63.60
2023-04-01T19:40:53.549Z,67.50
2023-04-01T19:43:53.098Z,63.70
2023-04-01T19:46:26.388Z,63.30
2023-04-01T19:49:13.984Z,68.60
2023-04-01T19:51:55.870Z,65.90
2023-04-01T19:54:33.387Z,67.50
2023-04-01T19:57:07.884Z,64.70
2023-04-01T19:59:43.584Z,65.10
2023-04-01T20:02:42.951Z,67.40
2023-04-01T20:05:44.049Z,62.40
2023-04-01T20:08:12.725Z,66.60
2023-04-01T20:10:53.363Z,65.90
2023-04-01T20:14:00.861Z,66.70
2023-04-01T20:17:00.021Z,63.40
2023-04-01T20:19:50.042Z,63.80
2023-04-01T20:22:29.630Z,63.10
2023-04-01T20:25:14.020Z,65.50
2023-04-01T20:27:53.214Z,59.00
2023-04-01T20:30:59.430Z,64.90
2023-04-01T20:33:58.908Z,62.50
2023-04-01T20:36:39.361Z,65.80
2023-04-01T20:39:22.930Z,64.80
2023-04-01T20:42:28.027Z,63.20
2023-04-01T20:45:00.622Z,65.50
2023-04-01T20:47:29.119Z,65.40
2023-04-01T20:50:25.815Z,67.70
2023-04-01T20:53:05.732Z,65.20
2023-04-01T20:56:08.547Z,68.70
2023-04-01T20:58:47.912Z,65.00
2023-04-01T21:01:53.750Z,66.10
2023-04-01T21:05:03.819Z,70.40
2023-04-01T21:07:44.256Z,66.10
2023-04-01T21:10:42.092Z,74.60
2023-04-01T21:13:29.013Z,73.90
2023-04-01T21:16:21.198Z,73.90
2023-04-01T21:18:50.036Z,69.80
2023-04-01T21:21:35.060Z,71.50
2023-04-01T21:25:04.139Z,72.70
2023-04-01T21:27:48.036Z,81.80
2023-04-01T21:30:41.637Z,73.20
2023-04-01T21:33:27.956Z,80.70
2023-04-01T21:38:42.910Z,85.00
2023-04-01T21:41:21.344Z,81.10
2023-04-01T21:44:19.902Z,75.70
2023-04-01T21:50:41.190Z,81.60
2023-04-01T21:53:47.221Z,85.60
2023-04-01T21:59:21.579Z,84.90
2023-04-01T22:02:08.113Z,83.80
2023-04-01T22:04:45.330Z,73.50
2023-04-01T22:07:25.632Z,75.60
2023-04-01T22:10:12.133Z,71.50
2023-04-01T22:12:51.655Z,84.10
2023-04-01T22:16:02.358Z,90.90
2023-04-01T22:19:04.942Z,93.40
2023-04-01T22:22:02.598Z,87.40
2023-04-01T22:24:40.502Z,90.20
2023-04-01T22:27:22.548Z,79.30
2023-04-01T22:29:53.870Z,85.60
2023-04-01T22:32:29.563Z,74.20
2023-04-01T22:35:12.602Z,84.50
2023-04-01T22:38:00.173Z,83.30
2023-04-01T22:40:57.101Z,88.90
2023-04-01T22:43:40.786Z,77.60
2023-04-01T22:46:18.226Z,83.90
2023-04-01T22:48:49.158Z,93.90
2023-04-01T22:51:25.564Z,85.00
2023-04-01T22:54:03.532Z,88.20
2023-04-01T22:56:38.917Z,82.00
2023-04-01T22:59:21.885Z,78.50
2023-04-01T23:02:08.325Z,79.50
2023-04-01T23:04:44.681Z,86.60
2023-04-01T23:07:48.015Z,82.80
2023-04-01T23:10:39.293Z,86.40
2023-04-01T23:13:15.113Z,76.10
2023-04-01T23:15:46.163Z,82.00
2023-04-01T23:18:36.134Z,75.60
2023-04-01T23:21:07.422Z,71.90
2023-04-01T23:23:50.902Z,79.90
2023-04-01T23:26:38.336Z,77.70
2023-04-01T23:29:16.362Z,84.00
2023-04-01T23:31:49.411Z,79.00
2023-04-01T23:34:25.556Z,67.90
2023-04-01T23:37:00.296Z,70.70
2023-04-01T23:39:35.786Z,75.70
2023-04-01T23:42:14.597Z,82.00
2023-04-01T23:44:44.967Z,75.60
2023-04-01T23:47:19.075Z,72.90
2023-04-01T23:49:56.470Z,73.70
2023-04-01T23:52:27.683Z,73.40
2023-04-01T23:55:04.685Z,73.10
2023-04-01T23:57:37.865Z,85.50
